createdAt,value
2022-12-07T00:01:29.210Z,13.50
2022-12-07T00:04:07.029Z,13.83
2022-12-07T00:06:35.672Z,12.97
2022-12-07T00:09:02.914Z,12.57
2022-12-07T00:11:29.828Z,12.10
2022-12-07T00:14:00.092Z,12.70
2022-12-07T00:16:29.515Z,12.10
2022-12-07T00:18:56.725Z,13.23
2022-12-07T00:21:26.300Z,14.03
2022-12-07T00:23:54.688Z,12.10
2022-12-07T00:26:30.042Z,12.07
2022-12-07T00:29:03.014Z,14.27
2022-12-07T00:31:34.812Z,14.93
2022-12-07T00:34:01.963Z,12.70
2022-12-07T00:36:28.874Z,11.63
2022-12-07T00:38:58.251Z,12.07
2022-12-07T00:41:27.093Z,12.83
2022-12-07T00:43:54.423Z,12.83
2022-12-07T00:46:21.998Z,11.13
2022-12-07T00:48:50.442Z,13.37
2022-12-07T00:51:19.249Z,11.20
2022-12-07T00:53:46.659Z,12.03
2022-12-07T00:56:19.237Z,10.37
2022-12-07T00:58:57.824Z,11.57
2022-12-07T01:01:26.440Z,11.97
2022-12-07T01:03:53.374Z,12.37
2022-12-07T01:06:22.315Z,11.57
2022-12-07T01:08:49.703Z,13.23
2022-12-07T01:11:19.454Z,11.93
2022-12-07T01:13:46.838Z,12.23
2022-12-07T01:16:16.142Z,11.83
2022-12-07T01:18:43.547Z,11.37
2022-12-07T01:21:17.568Z,10.50
2022-12-07T01:23:44.471Z,13.03
2022-12-07T01:26:14.015Z,12.33
2022-12-07T01:28:40.905Z,12.10
2022-12-07T01:31:15.838Z,11.73
2022-12-07T01:33:45.106Z,12.20
2022-12-07T01:36:25.530Z,12.40
2022-12-07T01:38:58.093Z,12.03
2022-12-07T01:41:28.245Z,12.27
2022-12-07T01:44:08.778Z,12.67
2022-12-07T01:46:35.831Z,12.93
2022-12-07T01:49:07.152Z,12.43
2022-12-07T01:51:34.526Z,12.07
2022-12-07T01:54:02.766Z,12.67
2022-12-07T01:56:30.426Z,12.07
2022-12-07T01:58:59.349Z,11.57
2022-12-07T02:01:26.341Z,12.40
2022-12-07T02:03:53.997Z,12.40
2022-12-07T02:06:24.615Z,12.10
2022-12-07T02:08:51.630Z,11.30
2022-12-07T02:11:19.207Z,12.37
2022-12-07T02:13:47.300Z,11.97
2022-12-07T02:16:35.062Z,11.80
2022-12-07T02:19:22.905Z,12.03
2022-12-07T02:22:20.538Z,11.03
2022-12-07T02:25:38.361Z,11.40
2022-12-07T02:28:22.930Z,13.07
2022-12-07T02:30:52.667Z,12.27
2022-12-07T02:33:26.914Z,12.10
2022-12-07T02:36:01.819Z,12.27
2022-12-07T02:38:39.474Z,12.27
2022-12-07T02:41:29.487Z,12.57
2022-12-07T02:44:00.265Z,13.10
2022-12-07T02:46:32.926Z,12.40
2022-12-07T02:49:00.777Z,13.20
2022-12-07T02:51:31.714Z,13.20
2022-12-07T02:54:00.127Z,11.93
2022-12-07T02:56:43.679Z,14.13
2022-12-07T02:59:17.927Z,14.37
2022-12-07T03:02:02.793Z,13.17
2022-12-07T03:04:57.055Z,13.33
2022-12-07T03:07:38.975Z,12.87
2022-12-07T03:10:33.846Z,13.43
2022-12-07T03:13:06.406Z,15.73
2022-12-07T03:15:55.881Z,13.70
2022-12-07T03:18:25.296Z,14.33
2022-12-07T03:20:56.065Z,13.40
2022-12-07T03:23:26.464Z,13.97
2022-12-07T03:26:00.917Z,14.73
2022-12-07T03:28:35.757Z,15.30
2022-12-07T03:31:23.475Z,15.27
2022-12-07T03:34:14.510Z,13.07
2022-12-07T03:36:53.407Z,13.83
2022-12-07T03:39:45.915Z,15.80
2022-12-07T03:42:13.042Z,14.67
2022-12-07T03:44:41.167Z,15.23
2022-12-07T03:47:17.178Z,14.23
2022-12-07T03:50:00.508Z,15.43
2022-12-07T03:52:40.082Z,14.03
2022-12-07T03:55:10.016Z,14.53
2022-12-07T03:57:38.941Z,15.33
2022-12-07T04:00:07.853Z,16.67
2022-12-07T04:02:39.539Z,14.47
2022-12-07T04:05:07.302Z,16.83
2022-12-07T04:07:34.199Z,16.00
2022-12-07T04:10:01.536Z,16.17
2022-12-07T04:12:28.518Z,17.23
2022-12-07T04:14:55.313Z,16.73
2022-12-07T04:17:22.282Z,19.03
2022-12-07T04:19:49.083Z,15.80
2022-12-07T04:22:15.890Z,17.00
2022-12-07T04:24:42.667Z,18.27
2022-12-07T04:27:09.463Z,16.97
2022-12-07T04:29:36.308Z,17.27
2022-12-07T04:32:03.073Z,17.17
2022-12-07T04:34:30.044Z,18.63
2022-12-07T04:36:57.014Z,18.10
2022-12-07T04:39:29.149Z,17.83
2022-12-07T04:41:56.472Z,17.63
2022-12-07T04:44:24.913Z,16.20
2022-12-07T04:46:52.026Z,19.53
2022-12-07T04:49:19.676Z,16.57
2022-12-07T04:51:48.106Z,18.53
2022-12-07T04:54:16.419Z,17.07
2022-12-07T04:56:43.828Z,18.27
2022-12-07T04:59:12.351Z,17.67
2022-12-07T05:01:39.473Z,18.03
2022-12-07T05:04:07.446Z,18.63
2022-12-07T05:06:34.542Z,16.87
2022-12-07T05:09:01.804Z,18.57
2022-12-07T05:11:40.870Z,18.93
2022-12-07T05:14:09.305Z,15.53
2022-12-07T05:16:36.538Z,17.80
2022-12-07T05:19:04.091Z,17.40
2022-12-07T05:21:31.015Z,16.67
2022-12-07T05:23:57.873Z,16.03
2022-12-07T05:26:24.697Z,18.00
2022-12-07T05:28:56.045Z,16.30
2022-12-07T05:31:23.703Z,17.40
2022-12-07T05:33:50.665Z,17.70
2022-12-07T05:36:17.549Z,18.23
2022-12-07T05:38:44.731Z,17.47
2022-12-07T05:41:38.801Z,15.63
2022-12-07T05:44:06.516Z,18.37
2022-12-07T05:46:33.804Z,19.87
2022-12-07T05:49:01.104Z,30.90
2022-12-07T05:51:28.211Z,21.30
2022-12-07T05:53:55.076Z,23.50
2022-12-07T05:56:21.978Z,21.23
2022-12-07T05:59:07.153Z,20.27
2022-12-07T06:01:33.973Z,18.90
2022-12-07T06:04:00.826Z,25.17
2022-12-07T06:06:27.671Z,22.83
2022-12-07T06:08:54.593Z,20.07
2022-12-07T06:11:53.653Z,20.20
2022-12-07T06:14:20.418Z,18.77
2022-12-07T06:16:47.507Z,17.60
2022-12-07T06:19:14.332Z,17.23
2022-12-07T06:21:41.207Z,17.70
2022-12-07T06:24:08.602Z,16.97
2022-12-07T06:26:35.401Z,21.83
2022-12-07T06:29:02.195Z,20.77
2022-12-07T06:31:29.064Z,24.13
2022-12-07T06:34:03.836Z,25.57
2022-12-07T06:36:31.365Z,22.60
2022-12-07T06:38:58.161Z,22.97
2022-12-07T06:41:25.617Z,22.10
2022-12-07T06:43:56.044Z,22.30
2022-12-07T06:46:24.159Z,20.03
2022-12-07T06:48:51.044Z,19.87
2022-12-07T06:51:18.020Z,21.30
2022-12-07T06:53:44.799Z,20.07
2022-12-07T06:56:11.623Z,20.23
2022-12-07T06:58:38.455Z,20.33
2022-12-07T07:01:11.299Z,18.73
2022-12-07T07:03:38.620Z,18.67
2022-12-07T07:06:06.416Z,19.80
2022-12-07T07:08:33.225Z,19.80
2022-12-07T07:11:00.028Z,20.93
2022-12-07T07:13:27.238Z,20.83
2022-12-07T07:15:54.245Z,21.70
2022-12-07T07:18:21.186Z,20.17
2022-12-07T07:20:47.986Z,19.13
2022-12-07T07:23:14.810Z,22.00
2022-12-07T07:25:41.614Z,20.60
2022-12-07T07:28:08.428Z,21.33
2022-12-07T07:30:35.278Z,20.83
2022-12-07T07:33:03.952Z,19.17
2022-12-07T07:35:32.703Z,20.67
2022-12-07T07:38:00.185Z,18.93
2022-12-07T07:40:27.159Z,22.87
2022-12-07T07:42:54.930Z,20.97
2022-12-07T07:45:23.895Z,19.53
2022-12-07T07:47:50.812Z,22.07
2022-12-07T07:50:18.337Z,22.57
2022-12-07T07:52:45.264Z,23.27
2022-12-07T07:55:12.479Z,23.23
2022-12-07T07:57:40.175Z,21.77
2022-12-07T08:00:13.347Z,21.87
2022-12-07T08:02:43.826Z,21.30
2022-12-07T08:05:12.873Z,22.77
2022-12-07T08:07:40.376Z,21.23
2022-12-07T08:10:08.025Z,21.40
2022-12-07T08:12:38.625Z,20.63
2022-12-07T08:15:05.924Z,20.67
2022-12-07T08:17:33.900Z,19.40
2022-12-07T08:20:01.330Z,17.93
2022-12-07T08:22:28.364Z,18.27
2022-12-07T08:24:55.125Z,18.30
2022-12-07T08:27:21.971Z,19.83
2022-12-07T08:29:48.772Z,19.03
2022-12-07T08:32:15.517Z,18.10
2022-12-07T08:34:42.387Z,17.90
2022-12-07T08:37:09.185Z,17.87
2022-12-07T08:39:36.102Z,19.33
2022-12-07T08:42:02.940Z,18.07
2022-12-07T08:44:29.757Z,18.33
2022-12-07T08:47:04.996Z,16.43
2022-12-07T08:49:40.426Z,17.37
2022-12-07T08:52:07.556Z,17.27
2022-12-07T08:54:37.635Z,16.33
2022-12-07T08:57:05.357Z,16.70
2022-12-07T08:59:34.777Z,15.97
2022-12-07T09:02:01.657Z,16.53
2022-12-07T09:04:28.650Z,17.40
2022-12-07T09:06:56.273Z,14.33
2022-12-07T09:09:23.079Z,16.70
2022-12-07T09:11:49.858Z,15.27
2022-12-07T09:14:16.824Z,17.13
2022-12-07T09:16:43.669Z,14.60
2022-12-07T09:19:10.392Z,14.77
2022-12-07T09:21:37.172Z,15.73
2022-12-07T09:24:04.199Z,14.90
2022-12-07T09:26:31.012Z,14.30
2022-12-07T09:28:57.840Z,14.90
2022-12-07T09:31:25.731Z,14.57
2022-12-07T09:34:01.396Z,13.20
2022-12-07T09:36:29.354Z,15.87
2022-12-07T09:38:56.570Z,13.37
2022-12-07T09:41:25.308Z,11.60
2022-12-07T09:43:52.928Z,12.10
2022-12-07T09:46:21.539Z,12.07
2022-12-07T09:48:50.918Z,12.13
2022-12-07T09:51:24.301Z,12.40
2022-12-07T09:53:53.987Z,12.97
2022-12-07T09:56:22.048Z,13.03
2022-12-07T09:58:50.341Z,12.27
2022-12-07T10:01:19.812Z,12.03
2022-12-07T10:04:01.856Z,12.00
2022-12-07T10:06:28.758Z,11.90
2022-12-07T10:08:55.546Z,13.33
2022-12-07T10:11:22.409Z,12.93
2022-12-07T10:13:54.744Z,13.57
2022-12-07T10:16:39.812Z,13.47
2022-12-07T10:19:31.708Z,14.27
2022-12-07T10:22:12.068Z,14.03
2022-12-07T10:24:41.905Z,14.30
2022-12-07T10:27:27.064Z,13.67
2022-12-07T10:29:54.490Z,14.00
2022-12-07T10:32:21.223Z,14.10
2022-12-07T10:35:01.897Z,17.20
2022-12-07T10:37:29.225Z,16.87
2022-12-07T10:39:58.488Z,15.47
2022-12-07T10:42:31.050Z,16.97
2022-12-07T10:45:16.801Z,14.63
2022-12-07T10:47:53.659Z,14.50
2022-12-07T10:50:48.461Z,14.03
2022-12-07T10:53:34.008Z,12.87
2022-12-07T10:56:15.253Z,14.97
2022-12-07T10:58:51.003Z,13.50
2022-12-07T11:01:29.862Z,12.40
2022-12-07T11:04:24.647Z,14.37
2022-12-07T11:07:03.401Z,14.97
2022-12-07T11:10:09.709Z,16.00
2022-12-07T11:13:10.413Z,13.63
2022-12-07T11:16:03.870Z,16.67
2022-12-07T11:18:44.740Z,15.27
2022-12-07T11:21:35.686Z,15.47
2022-12-07T11:24:10.994Z,14.40
2022-12-07T11:27:15.172Z,13.40
2022-12-07T11:30:11.119Z,14.27
2022-12-07T11:33:05.744Z,13.03
2022-12-07T11:35:44.570Z,13.93
2022-12-07T11:38:45.327Z,13.27
2022-12-07T11:41:14.363Z,13.87
2022-12-07T11:44:08.725Z,13.60
2022-12-07T11:46:42.113Z,12.27
2022-12-07T11:49:20.188Z,12.23
2022-12-07T11:51:53.417Z,12.63
2022-12-07T11:54:32.936Z,12.63
2022-12-07T11:57:05.352Z,13.20
2022-12-07T11:59:46.273Z,11.17
2022-12-07T12:02:19.359Z,12.73
2022-12-07T12:05:03.346Z,12.80
2022-12-07T12:10:28.808Z,14.40
2022-12-07T12:16:42.974Z,12.17
2022-12-07T12:19:34.406Z,12.83
2022-12-07T12:22:22.102Z,13.60
2022-12-07T12:24:55.014Z,11.67
2022-12-07T12:27:30.589Z,12.43
2022-12-07T12:30:02.230Z,11.10
2022-12-07T12:32:39.108Z,13.90
2022-12-07T12:35:38.229Z,13.30
2022-12-07T12:38:49.283Z,11.97
2022-12-07T12:41:39.213Z,17.40
2022-12-07T12:44:20.679Z,15.30
2022-12-07T12:46:52.028Z,13.83
2022-12-07T12:49:21.863Z,14.07
2022-12-07T12:52:08.675Z,13.23
2022-12-07T12:54:38.044Z,13.63
2022-12-07T12:57:30.171Z,11.37
2022-12-07T12:59:58.372Z,10.93
2022-12-07T13:02:29.930Z,11.00
2022-12-07T13:05:08.672Z,11.47
2022-12-07T13:07:54.133Z,13.10
2022-12-07T13:10:30.185Z,11.60
2022-12-07T13:13:06.021Z,10.77
2022-12-07T13:15:41.956Z,10.03
2022-12-07T13:18:30.910Z,11.63
2022-12-07T13:21:10.025Z,10.00
2022-12-07T13:23:45.741Z,12.53
2022-12-07T13:26:20.097Z,16.63
2022-12-07T13:29:07.158Z,21.90
2022-12-07T13:31:41.579Z,28.13
2022-12-07T13:34:36.900Z,28.43
2022-12-07T13:37:11.990Z,20.87
2022-12-07T13:39:47.636Z,18.80
2022-12-07T13:42:25.228Z,18.00
2022-12-07T13:44:51.978Z,17.47
2022-12-07T13:47:27.064Z,20.43
2022-12-07T13:49:56.290Z,22.57
2022-12-07T13:52:31.376Z,27.20
2022-12-07T13:55:07.201Z,23.57
2022-12-07T13:57:37.136Z,34.83
2022-12-07T14:00:14.719Z,26.80
2022-12-07T14:02:57.027Z,28.50
2022-12-07T14:05:30.679Z,28.23
2022-12-07T14:08:00.370Z,30.83
2022-12-07T14:10:31.680Z,24.70
2022-12-07T14:12:59.319Z,31.60
2022-12-07T14:15:32.604Z,25.43
2022-12-07T14:18:04.406Z,19.60
2022-12-07T14:20:40.010Z,21.13
2022-12-07T14:23:23.256Z,20.93
2022-12-07T14:25:52.765Z,18.50
2022-12-07T14:28:46.271Z,17.03
2022-12-07T14:31:26.230Z,14.97
2022-12-07T14:34:00.854Z,13.57
2022-12-07T14:36:27.788Z,12.53
2022-12-07T14:38:57.172Z,12.57
2022-12-07T14:41:43.172Z,14.07
2022-12-07T14:44:33.995Z,17.80
2022-12-07T14:49:46.724Z,15.77
2022-12-07T14:55:32.081Z,15.77
2022-12-07T14:57:59.878Z,16.63
2022-12-07T15:00:28.707Z,18.50
2022-12-07T15:02:56.682Z,21.70
2022-12-07T15:05:23.951Z,19.13
2022-12-07T15:07:52.135Z,21.33
2022-12-07T15:10:24.946Z,20.13
2022-12-07T15:12:52.284Z,22.23
2022-12-07T15:15:19.237Z,22.10
2022-12-07T15:17:46.079Z,24.63
2022-12-07T15:20:15.600Z,23.70
2022-12-07T15:22:42.401Z,20.23
2022-12-07T15:25:13.317Z,19.10
2022-12-07T15:27:40.156Z,18.33
2022-12-07T15:30:07.745Z,17.93
2022-12-07T15:32:34.746Z,16.83
2022-12-07T15:35:02.254Z,14.70
2022-12-07T15:37:29.301Z,18.60
2022-12-07T15:39:56.270Z,20.30
2022-12-07T15:42:23.134Z,20.27
2022-12-07T15:45:05.569Z,16.80
2022-12-07T15:47:54.928Z,16.63
2022-12-07T15:50:23.444Z,16.20
2022-12-07T15:52:50.571Z,14.10
2022-12-07T15:55:17.474Z,15.70
2022-12-07T15:57:44.429Z,16.83
2022-12-07T16:00:12.096Z,17.50
2022-12-07T16:02:40.218Z,17.77
2022-12-07T16:05:07.657Z,17.27
2022-12-07T16:07:34.479Z,17.57
2022-12-07T16:10:01.321Z,15.30
2022-12-07T16:12:28.096Z,15.50
2022-12-07T16:14:54.936Z,14.97
2022-12-07T16:17:21.691Z,16.37
2022-12-07T16:19:48.696Z,14.73
2022-12-07T16:22:15.522Z,15.43
2022-12-07T16:24:42.375Z,14.23
2022-12-07T16:27:09.220Z,13.30
2022-12-07T16:29:36.014Z,14.23
2022-12-07T16:32:02.916Z,13.33
2022-12-07T16:34:29.678Z,13.17
2022-12-07T16:37:05.300Z,12.83
2022-12-07T16:39:34.045Z,12.67
2022-12-07T16:42:01.142Z,12.30
2022-12-07T16:44:28.049Z,13.40
2022-12-07T16:46:54.943Z,16.47
2022-12-07T16:49:22.026Z,14.37
2022-12-07T16:52:08.688Z,13.80
2022-12-07T16:54:37.788Z,12.07
2022-12-07T16:57:04.569Z,11.83
2022-12-07T16:59:31.422Z,13.13
2022-12-07T17:01:58.198Z,13.60
2022-12-07T17:04:25.071Z,14.40
2022-12-07T17:06:51.918Z,13.53
2022-12-07T17:09:21.429Z,13.67
2022-12-07T17:11:49.016Z,12.07
2022-12-07T17:14:34.829Z,14.37
2022-12-07T17:17:02.176Z,13.70
2022-12-07T17:19:28.979Z,13.57
2022-12-07T17:21:56.230Z,14.00
2022-12-07T17:24:23.452Z,15.63
2022-12-07T17:26:50.360Z,17.00
2022-12-07T17:29:19.138Z,15.67
2022-12-07T17:31:51.238Z,16.37
2022-12-07T17:34:18.888Z,15.90
2022-12-07T17:36:46.249Z,18.43
2022-12-07T17:39:16.079Z,18.77
2022-12-07T17:42:01.445Z,17.90
2022-12-07T17:44:28.700Z,17.97
2022-12-07T17:46:58.407Z,17.50
2022-12-07T17:49:26.273Z,17.97
2022-12-07T17:52:11.551Z,26.07
2022-12-07T17:54:38.419Z,18.47
2022-12-07T17:57:05.518Z,17.97
2022-12-07T17:59:32.362Z,19.30
2022-12-07T18:01:59.285Z,18.73
2022-12-07T18:04:26.134Z,18.97
2022-12-07T18:06:53.037Z,21.57
2022-12-07T18:09:22.009Z,17.90
2022-12-07T18:11:49.028Z,17.30
2022-12-07T18:14:16.800Z,20.33
2022-12-07T18:16:44.433Z,17.67
2022-12-07T18:19:14.833Z,21.27
2022-12-07T18:21:42.423Z,22.80
2022-12-07T18:24:12.056Z,18.50
2022-12-07T18:26:39.986Z,20.50
2022-12-07T18:29:08.268Z,21.30
2022-12-07T18:31:36.196Z,19.63
2022-12-07T18:34:05.491Z,24.20
2022-12-07T18:36:32.440Z,20.17
2022-12-07T18:38:59.233Z,25.77
2022-12-07T18:41:26.358Z,29.83
2022-12-07T18:43:53.179Z,36.53
2022-12-07T18:46:21.440Z,33.33
2022-12-07T18:48:50.515Z,39.80
2022-12-07T18:51:19.150Z,36.23
2022-12-07T18:53:46.441Z,41.97
2022-12-07T18:56:20.206Z,39.70
2022-12-07T18:59:15.477Z,46.53
2022-12-07T19:01:44.092Z,39.50
2022-12-07T19:04:11.377Z,41.97
2022-12-07T19:06:38.329Z,37.23
2022-12-07T19:09:05.224Z,43.47
2022-12-07T19:11:52.615Z,41.97
2022-12-07T19:14:27.186Z,39.90
2022-12-07T19:16:56.543Z,37.40
2022-12-07T19:19:29.234Z,41.73
2022-12-07T19:21:56.037Z,36.63
2022-12-07T19:24:23.770Z,36.23
2022-12-07T19:26:52.415Z,34.20
2022-12-07T19:29:19.898Z,31.97
2022-12-07T19:31:47.402Z,28.00
2022-12-07T19:34:16.769Z,26.03
2022-12-07T19:36:45.084Z,20.97
2022-12-07T19:39:15.175Z,20.87
2022-12-07T19:41:44.012Z,22.27
2022-12-07T19:44:19.964Z,22.10
2022-12-07T19:46:52.520Z,22.70
2022-12-07T19:49:20.547Z,22.87
2022-12-07T19:51:49.972Z,22.47
2022-12-07T19:54:19.497Z,21.30
2022-12-07T19:56:47.156Z,23.83
2022-12-07T19:59:15.407Z,22.17
2022-12-07T20:01:43.719Z,23.53
2022-12-07T20:04:13.308Z,20.03
2022-12-07T20:06:40.376Z,20.07
2022-12-07T20:09:07.214Z,21.63
2022-12-07T20:11:52.564Z,23.13
2022-12-07T20:14:19.387Z,19.37
2022-12-07T20:16:46.354Z,19.93
2022-12-07T20:19:15.693Z,19.30
2022-12-07T20:21:43.764Z,19.97
2022-12-07T20:24:13.621Z,19.80
2022-12-07T20:26:41.020Z,19.73
2022-12-07T20:29:13.262Z,19.63
2022-12-07T20:31:44.325Z,19.57
2022-12-07T20:34:11.749Z,20.53
2022-12-07T20:36:38.997Z,20.33
2022-12-07T20:39:07.124Z,19.43
2022-12-07T20:41:52.907Z,26.00
2022-12-07T20:44:20.122Z,19.57
2022-12-07T20:46:47.987Z,23.20
2022-12-07T20:49:16.977Z,21.97
2022-12-07T20:51:44.610Z,20.33
2022-12-07T20:54:12.390Z,22.43
2022-12-07T20:56:39.755Z,20.93
2022-12-07T20:59:10.751Z,20.00
2022-12-07T21:01:37.760Z,21.60
2022-12-07T21:04:05.176Z,22.17
2022-12-07T21:06:32.137Z,20.77
2022-12-07T21:09:00.047Z,20.83
2022-12-07T21:11:28.724Z,23.77
2022-12-07T21:13:55.845Z,22.80
2022-12-07T21:16:25.319Z,21.63
2022-12-07T21:18:52.551Z,20.73
2022-12-07T21:21:19.907Z,19.33
2022-12-07T21:23:48.253Z,19.83
2022-12-07T21:26:25.739Z,18.43
2022-12-07T21:28:52.524Z,19.57
2022-12-07T21:31:19.938Z,17.57
2022-12-07T21:33:47.295Z,18.10
2022-12-07T21:36:17.052Z,17.03
2022-12-07T21:38:44.119Z,16.63
2022-12-07T21:41:25.160Z,17.93
2022-12-07T21:43:52.048Z,18.67
2022-12-07T21:46:19.983Z,16.33
2022-12-07T21:48:55.304Z,16.27
2022-12-07T21:51:23.790Z,16.53
2022-12-07T21:53:52.821Z,18.87
2022-12-07T21:56:25.495Z,15.67
2022-12-07T21:58:53.732Z,18.37
2022-12-07T22:01:23.416Z,15.00
2022-12-07T22:03:51.578Z,15.53
2022-12-07T22:06:21.165Z,16.17
2022-12-07T22:08:48.775Z,16.37
2022-12-07T22:11:15.892Z,18.33
2022-12-07T22:14:09.613Z,18.17
2022-12-07T22:16:37.960Z,16.43
2022-12-07T22:19:05.149Z,16.27
2022-12-07T22:21:32.214Z,16.37
2022-12-07T22:23:59.067Z,14.77
2022-12-07T22:26:26.335Z,15.97
2022-12-07T22:28:53.620Z,16.90
2022-12-07T22:31:21.147Z,17.93
2022-12-07T22:33:48.663Z,16.27
2022-12-07T22:36:16.206Z,16.00
2022-12-07T22:38:43.940Z,17.93
2022-12-07T22:41:24.417Z,17.53
2022-12-07T22:43:52.025Z,17.87
2022-12-07T22:46:19.022Z,18.20
2022-12-07T22:48:46.065Z,18.50
2022-12-07T22:51:28.081Z,19.80
2022-12-07T22:53:55.362Z,16.40
2022-12-07T22:56:23.073Z,17.83
2022-12-07T22:58:50.285Z,16.80
2022-12-07T23:01:19.138Z,16.93
2022-12-07T23:03:46.167Z,18.30
2022-12-07T23:06:18.288Z,18.17
2022-12-07T23:08:45.701Z,18.97
2022-12-07T23:11:37.835Z,18.57
2022-12-07T23:14:10.461Z,16.53
2022-12-07T23:16:37.513Z,17.77
2022-12-07T23:19:04.336Z,16.80
2022-12-07T23:21:31.489Z,16.47
2022-12-07T23:23:58.294Z,17.27
2022-12-07T23:26:25.095Z,17.47
2022-12-07T23:28:52.212Z,15.83
2022-12-07T23:31:20.847Z,16.70
2022-12-07T23:33:47.896Z,14.73
2022-12-07T23:36:25.537Z,14.63
2022-12-07T23:38:53.511Z,15.17
2022-12-07T23:41:22.644Z,14.67
2022-12-07T23:43:50.153Z,15.67
2022-12-07T23:46:25.562Z,15.53
2022-12-07T23:48:54.884Z,15.57
2022-12-07T23:51:21.946Z,14.03
2022-12-07T23:53:50.705Z,13.33
2022-12-07T23:56:23.530Z,13.83
2022-12-07T23:58:50.838Z,12.47
